sensor_id;sensor_type;location;lat;lon;timestamp;pressure;altitude;pressure_sealevel;temperature;humidity
9721;BME280;4899;42.644;23.366;2023-05-23T00:01:17;94148.44;;;11.79;100.00
9721;BME280;4899;42.644;23.366;2023-05-23T00:03:42;94159.00;;;11.86;100.00
9721;BME280;4899;42.644;23.366;2023-05-23T00:06:08;94145.13;;;11.79;100.00
9721;BME280;4899;42.644;23.366;2023-05-23T00:08:34;94142.28;;;11.71;100.00
9721;BME280;4899;42.644;23.366;2023-05-23T00:11:00;94140.75;;;11.70;100.00
9721;BME280;4899;42.644;23.366;2023-05-23T00:13:25;94145.66;;;11.63;100.00
9721;BME280;4899;42.644;23.366;2023-05-23T00:15:51;94142.03;;;11.44;100.00
9721;BME280;4899;42.644;23.366;2023-05-23T00:18:16;94146.28;;;11.60;100.00
9721;BME280;4899;42.644;23.366;2023-05-23T00:20:43;94140.81;;;11.62;100.00
9721;BME280;4899;42.644;23.366;2023-05-23T00:23:10;94143.38;;;11.62;100.00
9721;BME280;4899;42.644;23.366;2023-05-23T00:25:38;94148.97;;;11.64;100.00
9721;BME280;4899;42.644;23.366;2023-05-23T00:28:05;94138.13;;;11.58;100.00
9721;BME280;4899;42.644;23.366;2023-05-23T00:30:31;94139.00;;;11.62;100.00
9721;BME280;4899;42.644;23.366;2023-05-23T00:32:57;94137.47;;;11.61;100.00
9721;BME280;4899;42.644;23.366;2023-05-23T00:35:23;94136.09;;;11.64;100.00
9721;BME280;4899;42.644;23.366;2023-05-23T00:37:48;94132.97;;;11.58;100.00
9721;BME280;4899;42.644;23.366;2023-05-23T00:40:16;94129.38;;;11.51;100.00
9721;BME280;4899;42.644;23.366;2023-05-23T00:42:42;94131.84;;;11.47;100.00
9721;BME280;4899;42.644;23.366;2023-05-23T00:45:08;94125.06;;;11.43;100.00
9721;BME280;4899;42.644;23.366;2023-05-23T00:47:33;94129.50;;;11.33;100.00
9721;BME280;4899;42.644;23.366;2023-05-23T00:49:59;94134.06;;;11.28;100.00
9721;BME280;4899;42.644;23.366;2023-05-23T00:52:24;94097.75;;;11.00;100.00
9721;BME280;4899;42.644;23.366;2023-05-23T00:54:50;94126.28;;;11.16;100.00
9721;BME280;4899;42.644;23.366;2023-05-23T00:57:16;94135.22;;;11.18;100.00
9721;BME280;4899;42.644;23.366;2023-05-23T00:59:42;94121.00;;;11.12;100.00
9721;BME280;4899;42.644;23.366;2023-05-23T01:02:09;94131.72;;;11.14;100.00
9721;BME280;4899;42.644;23.366;2023-05-23T01:04:36;94126.44;;;11.10;100.00
9721;BME280;4899;42.644;23.366;2023-05-23T01:07:03;94134.47;;;11.09;100.00
9721;BME280;4899;42.644;23.366;2023-05-23T01:09:28;94140.06;;;11.11;100.00
9721;BME280;4899;42.644;23.366;2023-05-23T01:14:44;94125.13;;;11.04;100.00
9721;BME280;4899;42.644;23.366;2023-05-23T01:17:49;94139.00;;;11.12;100.00
9721;BME280;4899;42.644;23.366;2023-05-23T01:20:21;94136.63;;;11.07;100.00
9721;BME280;4899;42.644;23.366;2023-05-23T01:26:17;94129.53;;;11.04;100.00
9721;BME280;4899;42.644;23.366;2023-05-23T01:28:30;94128.19;;;10.98;100.00
9721;BME280;4899;42.644;23.366;2023-05-23T01:31:01;94143.47;;;11.03;100.00
9721;BME280;4899;42.644;23.366;2023-05-23T01:33:28;94136.66;;;10.98;100.00
9721;BME280;4899;42.644;23.366;2023-05-23T01:35:57;94101.22;;;10.74;100.00
9721;BME280;4899;42.644;23.366;2023-05-23T01:38:25;94143.31;;;10.99;100.00
9721;BME280;4899;42.644;23.366;2023-05-23T01:40:52;94126.81;;;11.00;100.00
9721;BME280;4899;42.644;23.366;2023-05-23T01:43:17;94124.50;;;11.07;100.00
9721;BME280;4899;42.644;23.366;2023-05-23T01:45:43;94129.78;;;11.11;100.00
9721;BME280;4899;42.644;23.366;2023-05-23T01:48:09;94129.66;;;11.07;100.00
9721;BME280;4899;42.644;23.366;2023-05-23T01:50:36;94123.94;;;11.02;100.00
9721;BME280;4899;42.644;23.366;2023-05-23T01:53:01;94130.78;;;10.98;100.00
9721;BME280;4899;42.644;23.366;2023-05-23T01:55:27;94117.47;;;10.96;100.00
9721;BME280;4899;42.644;23.366;2023-05-23T01:57:54;94123.38;;;10.96;100.00
9721;BME280;4899;42.644;23.366;2023-05-23T02:00:21;94118.09;;;10.93;100.00
9721;BME280;4899;42.644;23.366;2023-05-23T02:02:46;94117.94;;;10.89;100.00
9721;BME280;4899;42.644;23.366;2023-05-23T02:05:12;94120.97;;;10.91;100.00
9721;BME280;4899;42.644;23.366;2023-05-23T02:07:37;94122.47;;;10.92;100.00
9721;BME280;4899;42.644;23.366;2023-05-23T02:10:06;94125.63;;;10.98;100.00
9721;BME280;4899;42.644;23.366;2023-05-23T02:12:36;94113.69;;;10.93;100.00
9721;BME280;4899;42.644;23.366;2023-05-23T02:15:02;94114.16;;;10.87;100.00
9721;BME280;4899;42.644;23.366;2023-05-23T02:17:27;94121.88;;;10.87;100.00
9721;BME280;4899;42.644;23.366;2023-05-23T02:19:53;94124.59;;;10.90;100.00
9721;BME280;4899;42.644;23.366;2023-05-23T02:22:22;94119.03;;;10.79;100.00
9721;BME280;4899;42.644;23.366;2023-05-23T02:24:49;94126.59;;;10.85;100.00
9721;BME280;4899;42.644;23.366;2023-05-23T02:27:14;94119.47;;;10.82;100.00
9721;BME280;4899;42.644;23.366;2023-05-23T02:29:40;94126.91;;;10.83;100.00
9721;BME280;4899;42.644;23.366;2023-05-23T02:32:06;94120.88;;;10.79;100.00
9721;BME280;4899;42.644;23.366;2023-05-23T02:34:31;94122.69;;;10.78;100.00
9721;BME280;4899;42.644;23.366;2023-05-23T02:36:56;94122.25;;;10.76;100.00
9721;BME280;4899;42.644;23.366;2023-05-23T02:39:22;94117.09;;;10.76;100.00
9721;BME280;4899;42.644;23.366;2023-05-23T02:41:47;94107.28;;;10.70;100.00
9721;BME280;4899;42.644;23.366;2023-05-23T02:44:13;94103.97;;;10.69;100.00
9721;BME280;4899;42.644;23.366;2023-05-23T02:46:38;94107.59;;;10.68;100.00
9721;BME280;4899;42.644;23.366;2023-05-23T02:49:04;94111.25;;;10.67;100.00
9721;BME280;4899;42.644;23.366;2023-05-23T02:51:29;94110.63;;;10.62;100.00
9721;BME280;4899;42.644;23.366;2023-05-23T02:53:56;94111.69;;;10.61;100.00
9721;BME280;4899;42.644;23.366;2023-05-23T02:56:21;94105.34;;;10.58;100.00
9721;BME280;4899;42.644;23.366;2023-05-23T02:58:47;94090.16;;;10.44;100.00
9721;BME280;4899;42.644;23.366;2023-05-23T03:01:13;94108.41;;;10.52;100.00
9721;BME280;4899;42.644;23.366;2023-05-23T03:03:38;94098.75;;;10.40;100.00
9721;BME280;4899;42.644;23.366;2023-05-23T03:06:06;94110.41;;;10.46;100.00
9721;BME280;4899;42.644;23.366;2023-05-23T03:08:31;94113.16;;;10.41;100.00
9721;BME280;4899;42.644;23.366;2023-05-23T03:10:57;94102.56;;;10.34;100.00
9721;BME280;4899;42.644;23.366;2023-05-23T03:13:22;94114.53;;;10.30;100.00
9721;BME280;4899;42.644;23.366;2023-05-23T03:15:48;94103.81;;;10.10;100.00
9721;BME280;4899;42.644;23.366;2023-05-23T03:18:13;94106.09;;;10.03;100.00
9721;BME280;4899;42.644;23.366;2023-05-23T03:20:38;94109.13;;;10.05;100.00
9721;BME280;4899;42.644;23.366;2023-05-23T03:23:04;94106.53;;;10.05;100.00
9721;BME280;4899;42.644;23.366;2023-05-23T03:25:29;94107.88;;;10.11;100.00
9721;BME280;4899;42.644;23.366;2023-05-23T03:27:55;94105.94;;;10.17;100.00
9721;BME280;4899;42.644;23.366;2023-05-23T03:30:20;94119.22;;;10.19;100.00
9721;BME280;4899;42.644;23.366;2023-05-23T03:32:46;94123.31;;;10.20;100.00
9721;BME280;4899;42.644;23.366;2023-05-23T03:35:19;94125.59;;;10.22;100.00
9721;BME280;4899;42.644;23.366;2023-05-23T03:37:45;94117.09;;;10.12;100.00
9721;BME280;4899;42.644;23.366;2023-05-23T03:40:10;94130.75;;;10.22;100.00
9721;BME280;4899;42.644;23.366;2023-05-23T03:42:37;94134.66;;;10.28;100.00
9721;BME280;4899;42.644;23.366;2023-05-23T03:45:03;94137.66;;;10.30;100.00
9721;BME280;4899;42.644;23.366;2023-05-23T03:47:29;94146.09;;;10.39;100.00
9721;BME280;4899;42.644;23.366;2023-05-23T03:49:56;94124.94;;;10.42;100.00
9721;BME280;4899;42.644;23.366;2023-05-23T03:52:22;94138.84;;;10.50;100.00
9721;BME280;4899;42.644;23.366;2023-05-23T03:54:47;94134.88;;;10.52;100.00
9721;BME280;4899;42.644;23.366;2023-05-23T03:57:12;94127.63;;;10.54;100.00
9721;BME280;4899;42.644;23.366;2023-05-23T03:59:38;94139.84;;;10.66;100.00
9721;BME280;4899;42.644;23.366;2023-05-23T04:02:04;94130.19;;;10.54;100.00
9721;BME280;4899;42.644;23.366;2023-05-23T04:04:30;94145.28;;;10.64;100.00
9721;BME280;4899;42.644;23.366;2023-05-23T04:06:56;94149.22;;;10.70;100.00
9721;BME280;4899;42.644;23.366;2023-05-23T04:09:22;94149.28;;;10.83;100.00
9721;BME280;4899;42.644;23.366;2023-05-23T04:11:48;94142.31;;;10.92;100.00
9721;BME280;4899;42.644;23.366;2023-05-23T04:14:13;94138.00;;;11.04;100.00
9721;BME280;4899;42.644;23.366;2023-05-23T04:16:39;94126.31;;;11.07;100.00
9721;BME280;4899;42.644;23.366;2023-05-23T04:19:06;94146.09;;;11.15;100.00
9721;BME280;4899;42.644;23.366;2023-05-23T04:21:33;94147.25;;;11.26;100.00
9721;BME280;4899;42.644;23.366;2023-05-23T04:23:59;94144.94;;;11.33;100.00
9721;BME280;4899;42.644;23.366;2023-05-23T04:26:24;94137.84;;;11.30;100.00
9721;BME280;4899;42.644;23.366;2023-05-23T04:28:50;94138.38;;;11.45;100.00
9721;BME280;4899;42.644;23.366;2023-05-23T04:31:21;94156.59;;;11.60;100.00
9721;BME280;4899;42.644;23.366;2023-05-23T04:33:47;94156.03;;;11.76;100.00
9721;BME280;4899;42.644;23.366;2023-05-23T04:36:13;94151.97;;;11.95;100.00
9721;BME280;4899;42.644;23.366;2023-05-23T04:38:38;94153.56;;;12.21;100.00
9721;BME280;4899;42.644;23.366;2023-05-23T04:41:06;94151.00;;;12.33;100.00
9721;BME280;4899;42.644;23.366;2023-05-23T04:43:31;94146.00;;;12.49;100.00
9721;BME280;4899;42.644;23.366;2023-05-23T04:46:00;94152.25;;;12.60;100.00
9721;BME280;4899;42.644;23.366;2023-05-23T04:48:26;94151.72;;;12.67;100.00
9721;BME280;4899;42.644;23.366;2023-05-23T04:50:52;94159.06;;;12.89;100.00
9721;BME280;4899;42.644;23.366;2023-05-23T04:53:20;94162.41;;;13.02;100.00
9721;BME280;4899;42.644;23.366;2023-05-23T04:55:46;94156.03;;;12.99;100.00
9721;BME280;4899;42.644;23.366;2023-05-23T04:58:11;94166.59;;;13.06;100.00
9721;BME280;4899;42.644;23.366;2023-05-23T05:00:37;94169.59;;;13.08;100.00
9721;BME280;4899;42.644;23.366;2023-05-23T05:03:02;94167.44;;;13.10;100.00
9721;BME280;4899;42.644;23.366;2023-05-23T05:05:28;94165.94;;;13.09;100.00
9721;BME280;4899;42.644;23.366;2023-05-23T05:07:53;94181.13;;;13.35;100.00
9721;BME280;4899;42.644;23.366;2023-05-23T05:10:19;94178.53;;;13.47;100.00
9721;BME280;4899;42.644;23.366;2023-05-23T05:12:45;94184.25;;;13.53;100.00
9721;BME280;4899;42.644;23.366;2023-05-23T05:15:13;94184.44;;;13.60;100.00
9721;BME280;4899;42.644;23.366;2023-05-23T05:17:39;94193.59;;;13.58;100.00
9721;BME280;4899;42.644;23.366;2023-05-23T05:20:06;94169.69;;;13.61;100.00
9721;BME280;4899;42.644;23.366;2023-05-23T05:22:41;94188.81;;;13.84;100.00
9721;BME280;4899;42.644;23.366;2023-05-23T05:25:09;94190.84;;;13.91;100.00
9721;BME280;4899;42.644;23.366;2023-05-23T05:27:35;94185.25;;;13.89;100.00
9721;BME280;4899;42.644;23.366;2023-05-23T05:30:11;94186.19;;;13.96;100.00
9721;BME280;4899;42.644;23.366;2023-05-23T05:32:36;94184.13;;;14.02;100.00
9721;BME280;4899;42.644;23.366;2023-05-23T05:35:02;94186.38;;;14.03;100.00
9721;BME280;4899;42.644;23.366;2023-05-23T05:37:28;94188.41;;;14.10;100.00
9721;BME280;4899;42.644;23.366;2023-05-23T05:39:54;94194.75;;;14.12;100.00
9721;BME280;4899;42.644;23.366;2023-05-23T05:42:21;94194.44;;;14.14;100.00
9721;BME280;4899;42.644;23.366;2023-05-23T05:44:47;94189.53;;;13.97;100.00
9721;BME280;4899;42.644;23.366;2023-05-23T05:47:13;94193.88;;;13.93;100.00
9721;BME280;4899;42.644;23.366;2023-05-23T05:49:38;94198.88;;;14.01;100.00
9721;BME280;4899;42.644;23.366;2023-05-23T05:52:05;94185.78;;;13.94;100.00
9721;BME280;4899;42.644;23.366;2023-05-23T05:54:31;94194.44;;;14.14;100.00
9721;BME280;4899;42.644;23.366;2023-05-23T05:56:56;94195.78;;;14.24;100.00
9721;BME280;4899;42.644;23.366;2023-05-23T05:59:22;94201.13;;;14.43;100.00
9721;BME280;4899;42.644;23.366;2023-05-23T06:01:47;94196.88;;;14.51;100.00
9721;BME280;4899;42.644;23.366;2023-05-23T06:04:15;94193.66;;;14.69;100.00
9721;BME280;4899;42.644;23.366;2023-05-23T06:06:41;94193.03;;;14.88;100.00
9721;BME280;4899;42.644;23.366;2023-05-23T06:09:06;94190.19;;;14.93;100.00
9721;BME280;4899;42.644;23.366;2023-05-23T06:11:32;94180.22;;;15.11;100.00
9721;BME280;4899;42.644;23.366;2023-05-23T06:13:57;94193.72;;;15.36;100.00
9721;BME280;4899;42.644;23.366;2023-05-23T06:16:23;94189.34;;;15.56;100.00
9721;BME280;4899;42.644;23.366;2023-05-23T06:18:48;94198.22;;;15.71;100.00
9721;BME280;4899;42.644;23.366;2023-05-23T06:21:14;94203.75;;;15.69;100.00
9721;BME280;4899;42.644;23.366;2023-05-23T06:23:40;94184.84;;;15.68;100.00
9721;BME280;4899;42.644;23.366;2023-05-23T06:26:05;94197.53;;;15.74;100.00
9721;BME280;4899;42.644;23.366;2023-05-23T06:28:36;94196.38;;;15.71;100.00
9721;BME280;4899;42.644;23.366;2023-05-23T06:31:01;94171.66;;;15.42;100.00
9721;BME280;4899;42.644;23.366;2023-05-23T06:33:27;94196.91;;;15.45;100.00
9721;BME280;4899;42.644;23.366;2023-05-23T06:35:52;94205.75;;;15.44;100.00
9721;BME280;4899;42.644;23.366;2023-05-23T06:38:18;94206.53;;;15.45;100.00
9721;BME280;4899;42.644;23.366;2023-05-23T06:40:43;94201.00;;;15.46;100.00
9721;BME280;4899;42.644;23.366;2023-05-23T06:43:09;94184.75;;;15.49;100.00
9721;BME280;4899;42.644;23.366;2023-05-23T06:45:35;94198.72;;;15.60;100.00
9721;BME280;4899;42.644;23.366;2023-05-23T06:48:02;94194.47;;;15.68;100.00
9721;BME280;4899;42.644;23.366;2023-05-23T06:50:28;94199.59;;;15.84;100.00
9721;BME280;4899;42.644;23.366;2023-05-23T06:52:53;94197.97;;;15.95;100.00
9721;BME280;4899;42.644;23.366;2023-05-23T06:55:19;94186.38;;;15.89;100.00
9721;BME280;4899;42.644;23.366;2023-05-23T06:57:45;94185.81;;;15.99;100.00
9721;BME280;4899;42.644;23.366;2023-05-23T07:00:11;94186.84;;;16.14;100.00
9721;BME280;4899;42.644;23.366;2023-05-23T07:02:38;94185.53;;;16.04;100.00
9721;BME280;4899;42.644;23.366;2023-05-23T07:05:04;94184.38;;;16.02;100.00
9721;BME280;4899;42.644;23.366;2023-05-23T07:07:29;94181.25;;;16.12;100.00
9721;BME280;4899;42.644;23.366;2023-05-23T07:09:54;94182.66;;;16.28;100.00
9721;BME280;4899;42.644;23.366;2023-05-23T07:12:20;94179.53;;;16.39;100.00
9721;BME280;4899;42.644;23.366;2023-05-23T07:14:45;94179.06;;;16.56;100.00
9721;BME280;4899;42.644;23.366;2023-05-23T07:17:11;94182.41;;;16.76;100.00
9721;BME280;4899;42.644;23.366;2023-05-23T07:19:36;94180.00;;;16.86;100.00
9721;BME280;4899;42.644;23.366;2023-05-23T07:22:02;94165.06;;;16.83;100.00
9721;BME280;4899;42.644;23.366;2023-05-23T07:24:27;94167.22;;;17.01;100.00
9721;BME280;4899;42.644;23.366;2023-05-23T07:26:53;94165.25;;;17.17;100.00
9721;BME280;4899;42.644;23.366;2023-05-23T07:29:18;94161.94;;;17.20;100.00
9721;BME280;4899;42.644;23.366;2023-05-23T07:31:44;94165.81;;;17.33;100.00
9721;BME280;4899;42.644;23.366;2023-05-23T07:34:09;94160.44;;;17.45;100.00
9721;BME280;4899;42.644;23.366;2023-05-23T07:36:34;94157.53;;;17.50;100.00
9721;BME280;4899;42.644;23.366;2023-05-23T07:39:02;94159.66;;;17.68;100.00
9721;BME280;4899;42.644;23.366;2023-05-23T07:41:28;94152.31;;;17.77;100.00
9721;BME280;4899;42.644;23.366;2023-05-23T07:43:53;94144.66;;;17.88;100.00
9721;BME280;4899;42.644;23.366;2023-05-23T07:46:18;94156.28;;;17.97;100.00
9721;BME280;4899;42.644;23.366;2023-05-23T07:48:47;94155.75;;;18.14;100.00
9721;BME280;4899;42.644;23.366;2023-05-23T07:51:12;94158.66;;;18.09;100.00
9721;BME280;4899;42.644;23.366;2023-05-23T07:53:38;94155.06;;;18.21;100.00
9721;BME280;4899;42.644;23.366;2023-05-23T07:56:05;94156.66;;;18.33;100.00
9721;BME280;4899;42.644;23.366;2023-05-23T07:58:30;94162.03;;;18.47;100.00
9721;BME280;4899;42.644;23.366;2023-05-23T08:00:55;94152.38;;;18.51;100.00
9721;BME280;4899;42.644;23.366;2023-05-23T08:03:22;94149.94;;;18.65;100.00
9721;BME280;4899;42.644;23.366;2023-05-23T08:05:48;94157.91;;;18.83;100.00
9721;BME280;4899;42.644;23.366;2023-05-23T08:08:14;94154.16;;;18.81;100.00
9721;BME280;4899;42.644;23.366;2023-05-23T08:10:39;94145.34;;;18.96;100.00
9721;BME280;4899;42.644;23.366;2023-05-23T08:13:05;94133.47;;;19.02;100.00
9721;BME280;4899;42.644;23.366;2023-05-23T08:15:31;94146.03;;;19.41;100.00
9721;BME280;4899;42.644;23.366;2023-05-23T08:17:58;94152.78;;;19.49;100.00
9721;BME280;4899;42.644;23.366;2023-05-23T08:20:25;94139.69;;;19.42;100.00
9721;BME280;4899;42.644;23.366;2023-05-23T08:22:57;94143.44;;;19.44;100.00
9721;BME280;4899;42.644;23.366;2023-05-23T08:25:23;94144.31;;;19.62;100.00
9721;BME280;4899;42.644;23.366;2023-05-23T08:27:49;94144.38;;;19.77;100.00
9721;BME280;4899;42.644;23.366;2023-05-23T08:30:15;94148.94;;;19.97;100.00
9721;BME280;4899;42.644;23.366;2023-05-23T08:32:41;94145.97;;;20.03;100.00
9721;BME280;4899;42.644;23.366;2023-05-23T08:35:06;94141.53;;;20.21;100.00
9721;BME280;4899;42.644;23.366;2023-05-23T08:37:32;94141.59;;;20.39;100.00
9721;BME280;4899;42.644;23.366;2023-05-23T08:39:57;94143.09;;;20.36;100.00
9721;BME280;4899;42.644;23.366;2023-05-23T08:42:23;94139.38;;;20.44;100.00
9721;BME280;4899;42.644;23.366;2023-05-23T08:44:48;94131.19;;;20.56;100.00
9721;BME280;4899;42.644;23.366;2023-05-23T08:47:15;94140.16;;;20.73;100.00
9721;BME280;4899;42.644;23.366;2023-05-23T08:49:42;94135.31;;;20.79;100.00
9721;BME280;4899;42.644;23.366;2023-05-23T08:52:11;94136.81;;;20.87;100.00
9721;BME280;4899;42.644;23.366;2023-05-23T08:54:37;94134.94;;;21.05;100.00
9721;BME280;4899;42.644;23.366;2023-05-23T08:57:02;94143.53;;;21.24;100.00
9721;BME280;4899;42.644;23.366;2023-05-23T08:59:28;94140.91;;;21.38;100.00
9721;BME280;4899;42.644;23.366;2023-05-23T09:01:54;94140.09;;;21.55;100.00
9721;BME280;4899;42.644;23.366;2023-05-23T09:04:21;94136.41;;;21.45;100.00
9721;BME280;4899;42.644;23.366;2023-05-23T09:06:46;94124.47;;;21.41;100.00
9721;BME280;4899;42.644;23.366;2023-05-23T09:09:12;94129.69;;;21.41;100.00
9721;BME280;4899;42.644;23.366;2023-05-23T09:11:38;94127.47;;;21.36;100.00
9721;BME280;4899;42.644;23.366;2023-05-23T09:14:03;94132.28;;;21.52;100.00
9721;BME280;4899;42.644;23.366;2023-05-23T09:16:32;94130.41;;;21.52;100.00
9721;BME280;4899;42.644;23.366;2023-05-23T09:19:09;94132.63;;;21.64;96.98
9721;BME280;4899;42.644;23.366;2023-05-23T09:21:35;94130.34;;;21.73;99.87
9721;BME280;4899;42.644;23.366;2023-05-23T09:24:00;94133.31;;;21.86;97.03
9721;BME280;4899;42.644;23.366;2023-05-23T09:26:26;94138.50;;;21.93;85.33
9721;BME280;4899;42.644;23.366;2023-05-23T09:28:56;94150.44;;;22.05;81.52
9721;BME280;4899;42.644;23.366;2023-05-23T09:31:25;94137.34;;;21.98;73.45
9721;BME280;4899;42.644;23.366;2023-05-23T09:33:52;94145.22;;;22.05;73.73
9721;BME280;4899;42.644;23.366;2023-05-23T09:36:18;94139.19;;;22.15;72.90
9721;BME280;4899;42.644;23.366;2023-05-23T09:38:45;94139.09;;;22.29;71.55
9721;BME280;4899;42.644;23.366;2023-05-23T09:41:11;94133.47;;;22.34;70.80
9721;BME280;4899;42.644;23.366;2023-05-23T09:43:37;94128.53;;;22.44;71.08
9721;BME280;4899;42.644;23.366;2023-05-23T09:46:10;94134.44;;;22.55;68.45
9721;BME280;4899;42.644;23.366;2023-05-23T09:48:35;94132.53;;;22.66;68.57
9721;BME280;4899;42.644;23.366;2023-05-23T09:51:05;94119.47;;;22.55;62.84
9721;BME280;4899;42.644;23.366;2023-05-23T09:53:31;94125.78;;;22.65;63.12
9721;BME280;4899;42.644;23.366;2023-05-23T09:55:58;94116.03;;;22.65;61.39
9721;BME280;4899;42.644;23.366;2023-05-23T09:58:25;94115.28;;;22.68;61.92
9721;BME280;4899;42.644;23.366;2023-05-23T10:00:55;94111.84;;;22.82;62.57
9721;BME280;4899;42.644;23.366;2023-05-23T10:03:30;94111.69;;;22.96;58.73
9721;BME280;4899;42.644;23.366;2023-05-23T10:06:06;94110.91;;;22.99;56.92
9721;BME280;4899;42.644;23.366;2023-05-23T10:08:38;94114.97;;;23.11;56.79
9721;BME280;4899;42.644;23.366;2023-05-23T10:13:43;94116.16;;;23.41;55.98
9721;BME280;4899;42.644;23.366;2023-05-23T10:18:44;94111.91;;;23.54;54.12
9721;BME280;4899;42.644;23.366;2023-05-23T10:21:18;94098.81;;;23.50;51.26
9721;BME280;4899;42.644;23.366;2023-05-23T10:23:45;94094.66;;;23.53;54.30
9721;BME280;4899;42.644;23.366;2023-05-23T10:26:12;94096.63;;;23.79;54.08
9721;BME280;4899;42.644;23.366;2023-05-23T10:28:39;94106.94;;;23.97;53.49
9721;BME280;4899;42.644;23.366;2023-05-23T10:31:06;94100.31;;;24.16;53.26
9721;BME280;4899;42.644;23.366;2023-05-23T10:33:34;94094.50;;;24.32;52.92
9721;BME280;4899;42.644;23.366;2023-05-23T10:36:10;94073.06;;;24.33;51.69
9721;BME280;4899;42.644;23.366;2023-05-23T10:38:48;94097.06;;;24.62;47.64
9721;BME280;4899;42.644;23.366;2023-05-23T10:41:24;94100.03;;;24.88;46.59
9721;BME280;4899;42.644;23.366;2023-05-23T10:44:11;94084.03;;;25.02;44.25
9721;BME280;4899;42.644;23.366;2023-05-23T10:46:57;94083.50;;;25.54;42.84
9721;BME280;4899;42.644;23.366;2023-05-23T10:49:42;94094.19;;;26.22;44.07
9721;BME280;4899;42.644;23.366;2023-05-23T10:52:10;94083.50;;;26.94;44.38
9721;BME280;4899;42.644;23.366;2023-05-23T10:54:47;94084.09;;;27.76;40.63
9721;BME280;4899;42.644;23.366;2023-05-23T10:57:17;94092.38;;;28.67;42.22
9721;BME280;4899;42.644;23.366;2023-05-23T10:59:44;94096.66;;;29.47;41.19
9721;BME280;4899;42.644;23.366;2023-05-23T11:02:15;94065.63;;;30.31;37.20
9721;BME280;4899;42.644;23.366;2023-05-23T11:04:42;94094.66;;;30.25;39.78
9721;BME280;4899;42.644;23.366;2023-05-23T11:07:27;94060.88;;;30.66;33.78
9721;BME280;4899;42.644;23.366;2023-05-23T11:10:04;94084.41;;;31.59;35.94
9721;BME280;4899;42.644;23.366;2023-05-23T11:12:40;94058.91;;;32.70;33.97
9721;BME280;4899;42.644;23.366;2023-05-23T11:15:19;94019.72;;;33.09;30.14
9721;BME280;4899;42.644;23.366;2023-05-23T11:17:53;94036.28;;;33.52;30.29
9721;BME280;4899;42.644;23.366;2023-05-23T11:20:20;94079.69;;;33.82;33.81
9721;BME280;4899;42.644;23.366;2023-05-23T11:22:57;94052.44;;;34.22;31.19
9721;BME280;4899;42.644;23.366;2023-05-23T11:25:42;94022.47;;;34.88;27.94
9721;BME280;4899;42.644;23.366;2023-05-23T11:28:08;94065.81;;;35.59;32.25
9721;BME280;4899;42.644;23.366;2023-05-23T11:30:35;94047.72;;;35.80;30.85
9721;BME280;4899;42.644;23.366;2023-05-23T11:33:11;94010.50;;;36.13;27.33
9721;BME280;4899;42.644;23.366;2023-05-23T11:35:41;94032.56;;;35.97;29.68
9721;BME280;4899;42.644;23.366;2023-05-23T11:38:07;94048.00;;;36.13;29.87
9721;BME280;4899;42.644;23.366;2023-05-23T11:43:06;94021.47;;;36.52;27.79
9721;BME280;4899;42.644;23.366;2023-05-23T11:45:33;94005.09;;;37.04;28.54
9721;BME280;4899;42.644;23.366;2023-05-23T11:48:06;93971.28;;;36.58;24.68
9721;BME280;4899;42.644;23.366;2023-05-23T11:50:32;93975.19;;;36.57;27.94
9721;BME280;4899;42.644;23.366;2023-05-23T11:52:58;93998.56;;;36.57;27.72
9721;BME280;4899;42.644;23.366;2023-05-23T11:55:24;93986.59;;;37.12;27.01
9721;BME280;4899;42.644;23.366;2023-05-23T11:57:49;93989.06;;;36.56;27.22
9721;BME280;4899;42.644;23.366;2023-05-23T12:00:16;93974.53;;;36.74;27.02
9721;BME280;4899;42.644;23.366;2023-05-23T12:02:44;93978.28;;;37.10;26.81
9721;BME280;4899;42.644;23.366;2023-05-23T12:05:11;93980.25;;;36.44;26.42
9721;BME280;4899;42.644;23.366;2023-05-23T12:07:58;93950.84;;;36.18;24.25
9721;BME280;4899;42.644;23.366;2023-05-23T12:10:26;93988.19;;;36.76;26.82
9721;BME280;4899;42.644;23.366;2023-05-23T12:12:52;93985.84;;;37.17;27.48
9721;BME280;4899;42.644;23.366;2023-05-23T12:15:18;93987.66;;;37.76;26.12
9721;BME280;4899;42.644;23.366;2023-05-23T12:17:44;93966.38;;;37.67;25.78
9721;BME280;4899;42.644;23.366;2023-05-23T12:20:14;93961.47;;;38.15;25.51
9721;BME280;4899;42.644;23.366;2023-05-23T12:22:41;93951.63;;;38.46;24.82
9721;BME280;4899;42.644;23.366;2023-05-23T12:25:09;93933.69;;;37.40;24.88
9721;BME280;4899;42.644;23.366;2023-05-23T12:27:38;93950.06;;;37.76;25.64
9721;BME280;4899;42.644;23.366;2023-05-23T12:32:32;93945.19;;;37.46;25.15
9721;BME280;4899;42.644;23.366;2023-05-23T12:34:57;93942.69;;;37.20;25.76
9721;BME280;4899;42.644;23.366;2023-05-23T12:37:23;93956.66;;;37.75;26.26
9721;BME280;4899;42.644;23.366;2023-05-23T12:39:49;93927.59;;;38.59;24.58
9721;BME280;4899;42.644;23.366;2023-05-23T12:42:15;93909.03;;;38.67;24.42
9721;BME280;4899;42.644;23.366;2023-05-23T12:44:41;93919.63;;;38.95;24.14
9721;BME280;4899;42.644;23.366;2023-05-23T12:47:10;93912.63;;;39.16;23.92
9721;BME280;4899;42.644;23.366;2023-05-23T12:49:35;93911.28;;;39.64;23.42
9721;BME280;4899;42.644;23.366;2023-05-23T12:52:01;93890.75;;;40.10;23.81
9721;BME280;4899;42.644;23.366;2023-05-23T12:54:26;93900.94;;;39.74;23.49
9721;BME280;4899;42.644;23.366;2023-05-23T12:56:52;93875.91;;;40.46;22.91
9721;BME280;4899;42.644;23.366;2023-05-23T12:59:17;93861.09;;;41.23;22.44
9721;BME280;4899;42.644;23.366;2023-05-23T13:01:43;93838.63;;;40.64;22.47
9721;BME280;4899;42.644;23.366;2023-05-23T13:04:09;93841.97;;;40.32;22.15
9721;BME280;4899;42.644;23.366;2023-05-23T13:06:34;93849.75;;;39.74;22.44
9721;BME280;4899;42.644;23.366;2023-05-23T13:09:00;93849.84;;;39.62;22.21
9721;BME280;4899;42.644;23.366;2023-05-23T13:11:26;93838.84;;;40.66;21.59
9721;BME280;4899;42.644;23.366;2023-05-23T13:13:51;93819.06;;;40.95;21.26
9721;BME280;4899;42.644;23.366;2023-05-23T13:16:18;93821.22;;;39.84;21.13
9721;BME280;4899;42.644;23.366;2023-05-23T13:18:43;93827.72;;;39.94;20.79